createdAt,value
2023-03-29T00:00:44.162Z,3.10
2023-03-29T00:03:05.965Z,3.20
2023-03-29T00:05:27.898Z,3.43
2023-03-29T00:07:54.121Z,2.87
2023-03-29T00:10:15.945Z,3.50
2023-03-29T00:12:40.954Z,3.40
2023-03-29T00:15:04.839Z,4.20
2023-03-29T00:17:26.567Z,3.88
2023-03-29T00:19:49.100Z,2.93
2023-03-29T00:22:10.746Z,3.13
2023-03-29T00:24:32.348Z,3.33
2023-03-29T00:26:54.999Z,3.63
2023-03-29T00:29:16.741Z,3.47
2023-03-29T00:31:38.478Z,3.90
2023-03-29T00:34:01.428Z,3.30
2023-03-29T00:36:24.063Z,3.50
2023-03-29T00:38:46.478Z,3.30
2023-03-29T00:41:09.496Z,4.17
2023-03-29T00:43:31.229Z,3.27
2023-03-29T00:45:52.948Z,3.43
2023-03-29T00:48:23.919Z,3.60
2023-03-29T00:51:08.215Z,3.27
2023-03-29T00:53:56.022Z,3.43
2023-03-29T00:56:26.363Z,3.20
2023-03-29T00:59:07.105Z,3.60
2023-03-29T01:01:42.043Z,3.50
2023-03-29T01:04:18.588Z,3.30
2023-03-29T01:06:43.478Z,3.63
2023-03-29T01:09:12.621Z,3.40
2023-03-29T01:11:46.522Z,3.10
2023-03-29T01:14:26.594Z,3.45
2023-03-29T01:16:48.430Z,3.00
2023-03-29T01:19:18.200Z,3.40
2023-03-29T01:21:51.513Z,3.30
2023-03-29T01:24:53.164Z,2.93
2023-03-29T01:27:58.327Z,3.33
2023-03-29T01:30:37.348Z,3.50
2023-03-29T01:33:07.518Z,3.10
2023-03-29T01:35:44.674Z,3.57
2023-03-29T01:38:18.224Z,3.10
2023-03-29T01:40:40.128Z,3.23
2023-03-29T01:43:26.070Z,3.40
2023-03-29T01:46:35.475Z,3.77
2023-03-29T01:49:12.490Z,3.57
2023-03-29T01:51:52.231Z,3.17
2023-03-29T01:54:39.423Z,2.97
2023-03-29T01:57:05.801Z,2.70
2023-03-29T01:59:33.199Z,3.20
2023-03-29T02:02:00.811Z,2.93
2023-03-29T02:04:32.504Z,3.03
2023-03-29T02:06:59.417Z,3.03
2023-03-29T02:09:22.366Z,3.37
2023-03-29T02:11:45.373Z,3.43
2023-03-29T02:14:07.462Z,3.03
2023-03-29T02:16:36.818Z,3.10
2023-03-29T02:18:58.713Z,3.23
2023-03-29T02:21:31.748Z,3.10
2023-03-29T02:23:57.138Z,3.20
2023-03-29T02:26:19.595Z,3.10
2023-03-29T02:28:42.975Z,3.20
2023-03-29T02:31:20.228Z,3.10
2023-03-29T02:34:24.467Z,3.50
2023-03-29T02:36:52.667Z,3.40
2023-03-29T02:39:16.931Z,3.23
2023-03-29T02:41:42.150Z,3.38
2023-03-29T02:44:08.328Z,3.27
2023-03-29T02:46:30.927Z,3.10
2023-03-29T02:48:55.575Z,3.80
2023-03-29T02:51:23.570Z,3.37
2023-03-29T02:53:54.531Z,3.23
2023-03-29T02:56:17.064Z,3.43
2023-03-29T02:58:38.711Z,3.63
2023-03-29T03:01:02.587Z,3.47
2023-03-29T03:03:25.475Z,4.47
2023-03-29T03:05:47.725Z,3.47
2023-03-29T03:08:09.950Z,3.30
2023-03-29T03:10:33.766Z,3.60
2023-03-29T03:12:56.746Z,3.53
2023-03-29T03:15:19.725Z,3.60
2023-03-29T03:17:41.650Z,3.53
2023-03-29T03:20:04.658Z,3.30
2023-03-29T03:22:26.474Z,3.33
2023-03-29T03:24:49.313Z,3.23
2023-03-29T03:27:11.790Z,3.70
2023-03-29T03:29:33.539Z,3.30
2023-03-29T03:32:13.853Z,3.40
2023-03-29T03:34:56.012Z,2.90
2023-03-29T03:37:20.704Z,3.20
2023-03-29T03:39:42.317Z,3.40
2023-03-29T03:42:08.223Z,3.80
2023-03-29T03:44:33.970Z,3.40
2023-03-29T03:47:14.602Z,4.00
2023-03-29T03:49:37.495Z,3.33
2023-03-29T03:51:59.877Z,3.37
2023-03-29T03:54:21.703Z,3.43
2023-03-29T03:57:22.861Z,3.20
2023-03-29T03:59:46.574Z,3.40
2023-03-29T04:02:13.477Z,3.50
2023-03-29T04:04:35.281Z,4.10
2023-03-29T04:07:14.337Z,3.60
2023-03-29T04:09:59.473Z,3.20
2023-03-29T04:12:39.771Z,2.90
2023-03-29T04:15:03.610Z,3.47
2023-03-29T04:17:25.672Z,3.33
2023-03-29T04:19:53.277Z,3.53
2023-03-29T04:22:14.967Z,3.23
2023-03-29T04:24:37.580Z,3.40
2023-03-29T04:27:25.600Z,3.40
2023-03-29T04:29:48.890Z,3.30
2023-03-29T04:32:21.100Z,2.90
2023-03-29T04:34:56.527Z,3.13
2023-03-29T04:37:21.989Z,3.20
2023-03-29T04:39:46.510Z,2.90
2023-03-29T04:42:09.378Z,3.10
2023-03-29T04:44:33.626Z,3.37
2023-03-29T04:46:55.928Z,2.70
2023-03-29T04:49:37.733Z,3.00
2023-03-29T04:52:04.053Z,3.37
2023-03-29T04:54:26.372Z,3.07
2023-03-29T04:56:56.804Z,2.90
2023-03-29T04:59:29.140Z,3.10
2023-03-29T05:01:51.173Z,3.20
2023-03-29T05:04:14.122Z,3.33
2023-03-29T05:06:46.854Z,2.97
2023-03-29T05:09:08.834Z,3.57
2023-03-29T05:11:40.927Z,3.17
2023-03-29T05:14:03.407Z,3.03
2023-03-29T05:16:30.174Z,3.00
2023-03-29T05:21:14.745Z,3.57
2023-03-29T05:26:20.325Z,3.37
2023-03-29T05:28:46.005Z,3.00
2023-03-29T05:31:08.563Z,3.83
2023-03-29T05:33:33.713Z,3.03
2023-03-29T05:36:05.382Z,2.90
2023-03-29T05:38:29.748Z,3.40
2023-03-29T05:40:52.894Z,2.90
2023-03-29T05:43:47.710Z,3.33
2023-03-29T05:46:12.608Z,3.37
2023-03-29T05:48:42.751Z,3.40
2023-03-29T05:51:05.462Z,3.20
2023-03-29T05:53:28.317Z,3.20
2023-03-29T05:55:51.305Z,2.93
2023-03-29T05:58:18.094Z,3.10
2023-03-29T06:00:41.300Z,3.50
2023-03-29T06:03:25.461Z,3.30
2023-03-29T06:05:57.456Z,3.23
2023-03-29T06:08:19.375Z,3.70
2023-03-29T06:11:06.132Z,3.30
2023-03-29T06:14:04.139Z,3.47
2023-03-29T06:16:26.614Z,3.30
2023-03-29T06:18:48.722Z,3.47
2023-03-29T06:21:10.759Z,3.57
2023-03-29T06:23:33.189Z,3.40
2023-03-29T06:25:55.509Z,3.43
2023-03-29T06:28:19.196Z,3.27
2023-03-29T06:30:42.053Z,4.07
2023-03-29T06:33:07.055Z,3.33
2023-03-29T06:35:46.983Z,3.30
2023-03-29T06:38:12.012Z,3.37
2023-03-29T06:40:59.736Z,3.53
2023-03-29T06:43:22.980Z,3.33
2023-03-29T06:45:54.428Z,3.27
2023-03-29T06:48:36.661Z,3.37
2023-03-29T06:50:59.230Z,3.63
2023-03-29T06:53:23.874Z,3.20
2023-03-29T06:55:53.997Z,4.10
2023-03-29T06:58:45.136Z,3.33
2023-03-29T07:01:27.128Z,3.87
2023-03-29T07:03:54.784Z,3.80
2023-03-29T07:06:24.811Z,4.20
2023-03-29T07:08:51.842Z,3.50
2023-03-29T07:11:26.155Z,3.27
2023-03-29T07:13:51.213Z,3.33
2023-03-29T07:16:14.910Z,3.63
2023-03-29T07:18:51.245Z,3.70
2023-03-29T07:21:38.040Z,3.63
2023-03-29T07:24:00.305Z,4.00
2023-03-29T07:26:28.299Z,3.90
2023-03-29T07:28:51.759Z,3.77
2023-03-29T07:31:13.486Z,4.00
2023-03-29T07:33:40.891Z,3.70
2023-03-29T07:36:06.034Z,4.00
2023-03-29T07:38:29.905Z,4.00
2023-03-29T07:41:12.329Z,3.63
2023-03-29T07:43:41.733Z,4.07
2023-03-29T07:46:06.557Z,3.63
2023-03-29T07:48:30.314Z,4.17
2023-03-29T07:50:55.991Z,4.03
2023-03-29T07:53:23.535Z,4.30
2023-03-29T07:55:49.824Z,3.77
2023-03-29T07:58:43.623Z,4.05
2023-03-29T08:01:08.362Z,3.87
2023-03-29T08:03:56.011Z,4.00
2023-03-29T08:06:30.937Z,3.70
2023-03-29T08:08:52.737Z,3.87
2023-03-29T08:11:15.247Z,4.30
2023-03-29T08:13:52.052Z,4.03
2023-03-29T08:16:36.913Z,3.92
2023-03-29T08:19:07.160Z,3.97
2023-03-29T08:21:43.582Z,4.07
2023-03-29T08:24:06.159Z,4.10
2023-03-29T08:26:41.912Z,4.20
2023-03-29T08:29:04.010Z,4.60
2023-03-29T08:31:26.118Z,4.37
2023-03-29T08:33:47.993Z,4.40
2023-03-29T08:36:40.474Z,4.47
2023-03-29T08:39:22.694Z,4.40
2023-03-29T08:42:30.463Z,4.30
2023-03-29T08:45:14.068Z,5.03
2023-03-29T08:47:51.439Z,4.27
2023-03-29T08:50:15.809Z,4.50
2023-03-29T08:52:51.675Z,4.73
2023-03-29T08:55:42.701Z,4.90
2023-03-29T08:58:34.762Z,4.87
2023-03-29T09:01:00.854Z,4.40
2023-03-29T09:04:09.034Z,4.93
2023-03-29T09:06:43.131Z,5.17
2023-03-29T09:09:19.812Z,4.60
2023-03-29T09:12:12.391Z,4.40
2023-03-29T09:14:52.571Z,5.57
2023-03-29T09:17:39.118Z,4.53
2023-03-29T09:20:18.988Z,4.97
2023-03-29T09:23:07.221Z,5.37
2023-03-29T09:26:06.759Z,5.10
2023-03-29T09:29:19.836Z,4.40
2023-03-29T09:31:44.791Z,5.53
2023-03-29T09:34:23.014Z,5.57
2023-03-29T09:37:15.778Z,6.03
2023-03-29T09:39:40.943Z,5.70
2023-03-29T09:42:09.373Z,5.40
2023-03-29T09:44:40.137Z,5.20
2023-03-29T09:47:23.310Z,6.10
2023-03-29T09:49:52.229Z,5.27
2023-03-29T09:52:18.209Z,5.70
2023-03-29T09:54:49.577Z,5.10
2023-03-29T09:57:47.177Z,5.20
2023-03-29T10:00:13.909Z,5.77
2023-03-29T10:02:36.169Z,5.63
2023-03-29T10:05:01.044Z,5.80
2023-03-29T10:07:23.900Z,4.97
2023-03-29T10:09:58.867Z,5.20
2023-03-29T10:12:21.469Z,5.00
2023-03-29T10:14:50.290Z,5.10
2023-03-29T10:17:28.008Z,5.10
2023-03-29T10:20:05.633Z,5.23
2023-03-29T10:22:37.862Z,5.67
2023-03-29T10:25:00.203Z,5.80
2023-03-29T10:27:34.863Z,5.93
2023-03-29T10:30:13.076Z,6.22
2023-03-29T10:32:37.772Z,5.70
2023-03-29T10:35:35.477Z,6.53
2023-03-29T10:38:00.489Z,6.35
2023-03-29T10:40:30.908Z,6.13
2023-03-29T10:42:57.657Z,6.40
2023-03-29T10:45:41.472Z,6.50
2023-03-29T10:48:06.937Z,6.50
2023-03-29T10:50:37.056Z,6.67
2023-03-29T10:52:59.092Z,8.63
2023-03-29T10:55:26.276Z,7.37
2023-03-29T10:58:25.254Z,7.10
2023-03-29T11:00:56.303Z,7.20
2023-03-29T11:03:40.575Z,6.73
2023-03-29T11:06:12.676Z,6.80
2023-03-29T11:09:01.539Z,7.53
2023-03-29T11:11:48.975Z,7.40
2023-03-29T11:14:33.036Z,7.67
2023-03-29T11:17:20.743Z,7.68
2023-03-29T11:20:12.502Z,8.13
2023-03-29T11:22:47.659Z,7.40
2023-03-29T11:25:46.718Z,7.03
2023-03-29T11:28:38.962Z,7.53
2023-03-29T11:31:38.572Z,7.30
2023-03-29T11:34:42.154Z,6.90
2023-03-29T11:37:11.246Z,7.30
2023-03-29T11:40:07.553Z,7.57
2023-03-29T11:42:35.011Z,7.23
2023-03-29T11:45:01.767Z,7.20
2023-03-29T11:47:37.111Z,7.30
2023-03-29T11:50:23.578Z,6.97
2023-03-29T11:52:51.421Z,6.53
2023-03-29T11:55:28.727Z,7.23
2023-03-29T11:58:05.715Z,7.53
2023-03-29T12:00:51.951Z,7.40
2023-03-29T12:03:44.769Z,7.13
2023-03-29T12:06:23.743Z,6.97
2023-03-29T12:09:01.280Z,7.17
2023-03-29T12:11:29.577Z,7.47
2023-03-29T12:13:59.847Z,6.57
2023-03-29T12:16:34.333Z,6.13
2023-03-29T12:19:01.363Z,5.97
2023-03-29T12:21:28.623Z,6.43
2023-03-29T12:23:51.824Z,7.67
2023-03-29T12:26:58.531Z,6.40
2023-03-29T12:30:03.689Z,6.70
2023-03-29T12:32:37.136Z,6.10
2023-03-29T12:35:55.703Z,6.33
2023-03-29T12:41:38.228Z,6.43
2023-03-29T12:44:24.570Z,6.40
2023-03-29T12:46:54.689Z,6.50
2023-03-29T12:49:35.943Z,6.17
2023-03-29T12:52:02.836Z,6.80
2023-03-29T12:54:30.703Z,6.47
2023-03-29T12:56:52.390Z,6.80
2023-03-29T12:59:46.820Z,7.10
2023-03-29T13:02:14.662Z,7.20
2023-03-29T13:04:58.714Z,6.50
2023-03-29T13:07:23.647Z,6.20
2023-03-29T13:10:08.234Z,6.27
2023-03-29T13:12:49.517Z,6.38
2023-03-29T13:15:14.380Z,6.23
2023-03-29T13:18:14.187Z,5.73
2023-03-29T13:20:53.310Z,6.30
2023-03-29T13:23:48.683Z,5.67
2023-03-29T13:26:34.259Z,5.25
2023-03-29T13:29:38.722Z,5.27
2023-03-29T13:32:43.571Z,5.13
2023-03-29T13:35:17.106Z,5.00
2023-03-29T13:38:19.732Z,5.45
2023-03-29T13:40:47.641Z,5.40
2023-03-29T13:43:21.649Z,5.33
2023-03-29T13:45:43.329Z,5.70
2023-03-29T13:48:24.716Z,5.03
2023-03-29T13:51:04.990Z,5.43
2023-03-29T13:53:55.102Z,5.37
2023-03-29T13:56:25.054Z,4.50
2023-03-29T13:59:05.635Z,4.43
2023-03-29T14:01:38.892Z,4.30
2023-03-29T14:04:01.798Z,3.93
2023-03-29T14:06:31.282Z,3.60
2023-03-29T14:08:53.841Z,3.40
2023-03-29T14:11:24.903Z,3.60
2023-03-29T14:13:47.383Z,3.60
2023-03-29T14:16:12.076Z,3.53
2023-03-29T14:18:40.281Z,2.97
2023-03-29T14:21:02.047Z,3.37
2023-03-29T14:23:30.095Z,3.13
2023-03-29T14:25:52.069Z,3.17
2023-03-29T14:28:28.866Z,3.60
2023-03-29T14:30:52.798Z,3.63
2023-03-29T14:33:14.840Z,3.17
2023-03-29T14:35:36.955Z,3.30
2023-03-29T14:38:00.613Z,3.47
2023-03-29T14:40:22.869Z,3.33
2023-03-29T14:42:47.453Z,3.17
2023-03-29T14:47:36.841Z,3.53
2023-03-29T14:50:01.763Z,3.40
2023-03-29T14:52:24.250Z,3.27
2023-03-29T14:54:51.965Z,3.73
2023-03-29T14:57:18.599Z,3.70
2023-03-29T14:59:48.519Z,4.00
2023-03-29T15:02:33.236Z,4.03
2023-03-29T15:05:07.637Z,4.07
2023-03-29T15:07:30.352Z,3.65
2023-03-29T15:09:52.227Z,4.77
2023-03-29T15:12:16.738Z,3.57
2023-03-29T15:17:22.615Z,4.70
2023-03-29T15:19:44.338Z,4.00
2023-03-29T15:22:11.313Z,4.50
2023-03-29T15:24:33.963Z,4.17
2023-03-29T15:27:03.551Z,4.03
2023-03-29T15:29:38.488Z,4.00
2023-03-29T15:34:29.324Z,3.90
2023-03-29T15:36:52.066Z,4.00
2023-03-29T15:39:20.074Z,3.97
2023-03-29T15:41:43.418Z,4.03
2023-03-29T15:44:05.673Z,3.90
2023-03-29T15:46:27.486Z,4.30
2023-03-29T15:48:49.321Z,3.97
2023-03-29T15:51:13.142Z,3.30
2023-03-29T15:53:35.898Z,3.60
2023-03-29T15:56:02.418Z,3.53
2023-03-29T15:58:30.754Z,3.20
2023-03-29T16:01:02.619Z,3.60
2023-03-29T16:03:27.532Z,3.17
2023-03-29T16:05:49.645Z,3.20
2023-03-29T16:08:12.732Z,3.53
2023-03-29T16:10:34.618Z,2.77
2023-03-29T16:12:57.286Z,2.80
2023-03-29T16:15:24.426Z,2.57
2023-03-29T16:17:46.318Z,2.40
2023-03-29T16:20:10.255Z,2.73
2023-03-29T16:22:32.286Z,2.78
2023-03-29T16:24:54.007Z,2.37
2023-03-29T16:27:16.955Z,3.17
2023-03-29T16:29:38.762Z,3.03
2023-03-29T16:32:01.044Z,3.60
2023-03-29T16:34:23.365Z,3.50
2023-03-29T16:36:47.915Z,3.20
